sensor_id;sensor_type;location;lat;lon;timestamp;P1;durP1;ratioP1;P2;durP2;ratioP2
21148;SDS011;10732;51.472;6.466;2022-07-06T00:00:04;4.35;;;3.85;;
21148;SDS011;10732;51.472;6.466;2022-07-06T00:02:30;10.05;;;4.10;;
21148;SDS011;10732;51.472;6.466;2022-07-06T00:04:56;8.32;;;4.25;;
21148;SDS011;10732;51.472;6.466;2022-07-06T00:07:22;6.68;;;4.00;;
21148;SDS011;10732;51.472;6.466;2022-07-06T00:09:48;6.40;;;4.65;;
21148;SDS011;10732;51.472;6.466;2022-07-06T00:12:14;7.53;;;4.85;;
21148;SDS011;10732;51.472;6.466;2022-07-06T00:14:40;5.22;;;4.60;;
21148;SDS011;10732;51.472;6.466;2022-07-06T00:17:05;5.97;;;4.38;;
21148;SDS011;10732;51.472;6.466;2022-07-06T00:19:31;5.38;;;4.38;;
21148;SDS011;10732;51.472;6.466;2022-07-06T00:21:57;7.20;;;4.97;;
21148;SDS011;10732;51.472;6.466;2022-07-06T00:24:22;5.82;;;4.65;;
21148;SDS011;10732;51.472;6.466;2022-07-06T00:26:48;7.70;;;4.80;;
21148;SDS011;10732;51.472;6.466;2022-07-06T00:29:14;5.75;;;4.95;;
21148;SDS011;10732;51.472;6.466;2022-07-06T00:31:39;6.50;;;4.45;;
21148;SDS011;10732;51.472;6.466;2022-07-06T00:34:05;5.47;;;4.97;;
21148;SDS011;10732;51.472;6.466;2022-07-06T00:36:30;7.32;;;4.93;;
21148;SDS011;10732;51.472;6.466;2022-07-06T00:38:56;11.02;;;5.43;;
21148;SDS011;10732;51.472;6.466;2022-07-06T00:41:21;6.57;;;5.05;;
21148;SDS011;10732;51.472;6.466;2022-07-06T00:43:48;9.05;;;5.30;;
21148;SDS011;10732;51.472;6.466;2022-07-06T00:46:27;8.55;;;5.35;;
21148;SDS011;10732;51.472;6.466;2022-07-06T00:48:56;8.90;;;4.57;;
21148;SDS011;10732;51.472;6.466;2022-07-06T00:51:22;5.03;;;4.47;;
21148;SDS011;10732;51.472;6.466;2022-07-06T00:53:53;8.13;;;4.95;;
21148;SDS011;10732;51.472;6.466;2022-07-06T00:56:21;6.60;;;5.10;;
21148;SDS011;10732;51.472;6.466;2022-07-06T00:58:47;7.13;;;5.47;;
21148;SDS011;10732;51.472;6.466;2022-07-06T01:01:12;6.55;;;5.50;;
21148;SDS011;10732;51.472;6.466;2022-07-06T01:03:38;7.38;;;5.18;;
21148;SDS011;10732;51.472;6.466;2022-07-06T01:06:03;7.68;;;5.30;;
21148;SDS011;10732;51.472;6.466;2022-07-06T01:08:29;6.57;;;5.03;;
21148;SDS011;10732;51.472;6.466;2022-07-06T01:10:55;5.82;;;4.97;;
21148;SDS011;10732;51.472;6.466;2022-07-06T01:13:20;8.15;;;4.55;;
21148;SDS011;10732;51.472;6.466;2022-07-06T01:15:46;5.70;;;5.10;;
21148;SDS011;10732;51.472;6.466;2022-07-06T01:18:12;8.13;;;5.28;;
21148;SDS011;10732;51.472;6.466;2022-07-06T01:20:37;5.22;;;4.72;;
21148;SDS011;10732;51.472;6.466;2022-07-06T01:23:03;6.28;;;5.10;;
21148;SDS011;10732;51.472;6.466;2022-07-06T01:25:28;10.05;;;5.30;;
21148;SDS011;10732;51.472;6.466;2022-07-06T01:27:54;7.03;;;5.00;;
21148;SDS011;10732;51.472;6.466;2022-07-06T01:30:20;6.90;;;5.00;;
21148;SDS011;10732;51.472;6.466;2022-07-06T01:32:45;5.97;;;5.07;;
21148;SDS011;10732;51.472;6.466;2022-07-06T01:35:12;6.70;;;4.97;;
21148;SDS011;10732;51.472;6.466;2022-07-06T01:37:39;6.97;;;5.00;;
21148;SDS011;10732;51.472;6.466;2022-07-06T01:40:06;5.53;;;4.90;;
21148;SDS011;10732;51.472;6.466;2022-07-06T01:42:33;5.57;;;4.93;;
21148;SDS011;10732;51.472;6.466;2022-07-06T01:45:00;6.15;;;5.28;;
21148;SDS011;10732;51.472;6.466;2022-07-06T01:47:26;6.05;;;5.10;;
21148;SDS011;10732;51.472;6.466;2022-07-06T01:49:51;5.50;;;4.95;;
21148;SDS011;10732;51.472;6.466;2022-07-06T01:52:17;8.82;;;4.80;;
21148;SDS011;10732;51.472;6.466;2022-07-06T01:54:43;7.43;;;5.13;;
21148;SDS011;10732;51.472;6.466;2022-07-06T01:57:09;6.97;;;4.93;;
21148;SDS011;10732;51.472;6.466;2022-07-06T01:59:35;9.15;;;5.35;;
21148;SDS011;10732;51.472;6.466;2022-07-06T02:02:01;8.48;;;5.43;;
21148;SDS011;10732;51.472;6.466;2022-07-06T02:04:26;8.27;;;5.10;;
21148;SDS011;10732;51.472;6.466;2022-07-06T02:06:52;6.93;;;5.32;;
21148;SDS011;10732;51.472;6.466;2022-07-06T02:09:17;8.15;;;5.40;;
21148;SDS011;10732;51.472;6.466;2022-07-06T02:11:43;6.93;;;5.35;;
21148;SDS011;10732;51.472;6.466;2022-07-06T02:14:09;7.55;;;5.80;;
21148;SDS011;10732;51.472;6.466;2022-07-06T02:16:34;7.72;;;5.32;;
21148;SDS011;10732;51.472;6.466;2022-07-06T02:19:00;7.40;;;5.15;;
21148;SDS011;10732;51.472;6.466;2022-07-06T02:21:26;8.48;;;5.30;;
21148;SDS011;10732;51.472;6.466;2022-07-06T02:23:52;8.57;;;5.30;;
21148;SDS011;10732;51.472;6.466;2022-07-06T02:26:17;9.13;;;5.43;;
21148;SDS011;10732;51.472;6.466;2022-07-06T02:28:43;7.25;;;5.38;;
21148;SDS011;10732;51.472;6.466;2022-07-06T02:31:10;7.00;;;5.22;;
21148;SDS011;10732;51.472;6.466;2022-07-06T02:33:38;6.60;;;5.20;;
21148;SDS011;10732;51.472;6.466;2022-07-06T02:36:03;6.88;;;4.95;;
21148;SDS011;10732;51.472;6.466;2022-07-06T02:38:29;6.03;;;5.43;;
21148;SDS011;10732;51.472;6.466;2022-07-06T02:40:54;10.15;;;5.10;;
21148;SDS011;10732;51.472;6.466;2022-07-06T02:43:20;6.45;;;5.13;;
21148;SDS011;10732;51.472;6.466;2022-07-06T02:45:45;7.47;;;5.18;;
21148;SDS011;10732;51.472;6.466;2022-07-06T02:48:11;7.65;;;5.90;;
21148;SDS011;10732;51.472;6.466;2022-07-06T02:50:37;6.95;;;5.80;;
21148;SDS011;10732;51.472;6.466;2022-07-06T02:53:02;8.35;;;5.55;;
21148;SDS011;10732;51.472;6.466;2022-07-06T02:55:28;6.90;;;5.82;;
21148;SDS011;10732;51.472;6.466;2022-07-06T02:57:53;7.97;;;5.88;;
21148;SDS011;10732;51.472;6.466;2022-07-06T03:00:19;8.05;;;5.28;;
21148;SDS011;10732;51.472;6.466;2022-07-06T03:02:45;10.93;;;5.97;;
21148;SDS011;10732;51.472;6.466;2022-07-06T03:05:10;8.57;;;5.88;;
21148;SDS011;10732;51.472;6.466;2022-07-06T03:07:36;8.55;;;5.75;;
21148;SDS011;10732;51.472;6.466;2022-07-06T03:10:01;8.15;;;6.22;;
21148;SDS011;10732;51.472;6.466;2022-07-06T03:12:27;10.30;;;6.43;;
21148;SDS011;10732;51.472;6.466;2022-07-06T03:14:53;7.50;;;6.32;;
21148;SDS011;10732;51.472;6.466;2022-07-06T03:17:18;6.93;;;6.10;;
21148;SDS011;10732;51.472;6.466;2022-07-06T03:19:44;7.50;;;6.25;;
21148;SDS011;10732;51.472;6.466;2022-07-06T03:22:09;8.63;;;6.22;;
21148;SDS011;10732;51.472;6.466;2022-07-06T03:24:35;9.32;;;6.00;;
21148;SDS011;10732;51.472;6.466;2022-07-06T03:27:00;11.43;;;6.65;;
21148;SDS011;10732;51.472;6.466;2022-07-06T03:29:26;9.25;;;6.35;;
21148;SDS011;10732;51.472;6.466;2022-07-06T03:31:52;8.55;;;6.65;;
21148;SDS011;10732;51.472;6.466;2022-07-06T03:34:17;8.20;;;6.35;;
21148;SDS011;10732;51.472;6.466;2022-07-06T03:36:43;8.90;;;6.25;;
21148;SDS011;10732;51.472;6.466;2022-07-06T03:39:08;9.43;;;6.25;;
21148;SDS011;10732;51.472;6.466;2022-07-06T03:41:34;8.23;;;5.93;;
21148;SDS011;10732;51.472;6.466;2022-07-06T03:43:59;10.45;;;6.18;;
21148;SDS011;10732;51.472;6.466;2022-07-06T03:46:25;8.63;;;5.85;;
21148;SDS011;10732;51.472;6.466;2022-07-06T03:48:50;7.30;;;5.68;;
21148;SDS011;10732;51.472;6.466;2022-07-06T03:51:16;8.30;;;5.70;;
21148;SDS011;10732;51.472;6.466;2022-07-06T03:53:42;13.10;;;6.75;;
21148;SDS011;10732;51.472;6.466;2022-07-06T03:56:08;7.03;;;5.82;;
21148;SDS011;10732;51.472;6.466;2022-07-06T03:58:52;8.95;;;5.70;;
21148;SDS011;10732;51.472;6.466;2022-07-06T04:01:18;7.38;;;5.22;;
21148;SDS011;10732;51.472;6.466;2022-07-06T04:03:43;8.35;;;5.45;;
21148;SDS011;10732;51.472;6.466;2022-07-06T04:06:09;9.13;;;5.53;;
21148;SDS011;10732;51.472;6.466;2022-07-06T04:08:35;7.50;;;5.10;;
21148;SDS011;10732;51.472;6.466;2022-07-06T04:11:01;8.13;;;5.47;;
21148;SDS011;10732;51.472;6.466;2022-07-06T04:13:27;9.57;;;5.82;;
21148;SDS011;10732;51.472;6.466;2022-07-06T04:15:52;11.93;;;5.63;;
21148;SDS011;10732;51.472;6.466;2022-07-06T04:18:18;8.45;;;5.80;;
21148;SDS011;10732;51.472;6.466;2022-07-06T04:20:43;10.88;;;5.43;;
21148;SDS011;10732;51.472;6.466;2022-07-06T04:23:09;9.80;;;5.70;;
21148;SDS011;10732;51.472;6.466;2022-07-06T04:25:34;8.40;;;5.97;;
21148;SDS011;10732;51.472;6.466;2022-07-06T04:28:00;8.88;;;5.13;;
21148;SDS011;10732;51.472;6.466;2022-07-06T04:30:26;6.45;;;5.32;;
21148;SDS011;10732;51.472;6.466;2022-07-06T04:32:51;8.10;;;4.80;;
21148;SDS011;10732;51.472;6.466;2022-07-06T04:35:17;8.05;;;5.15;;
21148;SDS011;10732;51.472;6.466;2022-07-06T04:37:43;6.57;;;4.45;;
21148;SDS011;10732;51.472;6.466;2022-07-06T04:40:10;8.57;;;5.25;;
21148;SDS011;10732;51.472;6.466;2022-07-06T04:42:36;6.50;;;4.90;;
21148;SDS011;10732;51.472;6.466;2022-07-06T04:45:02;6.07;;;4.75;;
21148;SDS011;10732;51.472;6.466;2022-07-06T04:47:28;6.97;;;4.85;;
21148;SDS011;10732;51.472;6.466;2022-07-06T04:49:54;8.35;;;5.40;;
21148;SDS011;10732;51.472;6.466;2022-07-06T04:52:19;7.43;;;4.47;;
21148;SDS011;10732;51.472;6.466;2022-07-06T04:54:45;8.75;;;4.88;;
21148;SDS011;10732;51.472;6.466;2022-07-06T04:57:10;6.15;;;4.60;;
21148;SDS011;10732;51.472;6.466;2022-07-06T04:59:36;6.25;;;4.70;;
21148;SDS011;10732;51.472;6.466;2022-07-06T05:02:02;6.50;;;4.82;;
21148;SDS011;10732;51.472;6.466;2022-07-06T05:04:27;8.88;;;5.07;;
21148;SDS011;10732;51.472;6.466;2022-07-06T05:06:53;8.70;;;4.85;;
21148;SDS011;10732;51.472;6.466;2022-07-06T05:09:18;5.32;;;4.43;;
21148;SDS011;10732;51.472;6.466;2022-07-06T05:11:44;6.00;;;4.97;;
21148;SDS011;10732;51.472;6.466;2022-07-06T05:14:10;9.30;;;4.78;;
21148;SDS011;10732;51.472;6.466;2022-07-06T05:16:35;5.22;;;4.32;;
21148;SDS011;10732;51.472;6.466;2022-07-06T05:19:01;7.78;;;4.72;;
21148;SDS011;10732;51.472;6.466;2022-07-06T05:21:27;6.47;;;4.40;;
21148;SDS011;10732;51.472;6.466;2022-07-06T05:23:52;8.57;;;4.50;;
21148;SDS011;10732;51.472;6.466;2022-07-06T05:26:18;5.75;;;4.22;;
21148;SDS011;10732;51.472;6.466;2022-07-06T05:28:43;10.77;;;4.38;;
21148;SDS011;10732;51.472;6.466;2022-07-06T05:31:09;7.65;;;4.38;;
21148;SDS011;10732;51.472;6.466;2022-07-06T05:33:34;5.68;;;4.35;;
21148;SDS011;10732;51.472;6.466;2022-07-06T05:36:00;8.65;;;4.20;;
21148;SDS011;10732;51.472;6.466;2022-07-06T05:38:25;7.07;;;4.55;;
21148;SDS011;10732;51.472;6.466;2022-07-06T05:40:51;4.90;;;3.90;;
21148;SDS011;10732;51.472;6.466;2022-07-06T05:43:17;6.43;;;4.10;;
21148;SDS011;10732;51.472;6.466;2022-07-06T05:45:43;9.05;;;4.88;;
21148;SDS011;10732;51.472;6.466;2022-07-06T05:48:08;5.80;;;4.20;;
21148;SDS011;10732;51.472;6.466;2022-07-06T05:50:52;6.53;;;5.00;;
21148;SDS011;10732;51.472;6.466;2022-07-06T05:53:18;7.45;;;4.15;;
21148;SDS011;10732;51.472;6.466;2022-07-06T05:55:44;6.10;;;4.00;;
21148;SDS011;10732;51.472;6.466;2022-07-06T05:58:10;5.97;;;4.15;;
21148;SDS011;10732;51.472;6.466;2022-07-06T06:00:35;7.88;;;4.18;;
21148;SDS011;10732;51.472;6.466;2022-07-06T06:03:01;9.93;;;4.32;;
21148;SDS011;10732;51.472;6.466;2022-07-06T06:05:26;5.90;;;4.50;;
21148;SDS011;10732;51.472;6.466;2022-07-06T06:07:52;5.80;;;4.20;;
21148;SDS011;10732;51.472;6.466;2022-07-06T06:10:18;8.48;;;3.78;;
21148;SDS011;10732;51.472;6.466;2022-07-06T06:12:46;6.07;;;3.83;;
21148;SDS011;10732;51.472;6.466;2022-07-06T06:15:12;5.78;;;3.97;;
21148;SDS011;10732;51.472;6.466;2022-07-06T06:17:38;5.43;;;3.75;;
21148;SDS011;10732;51.472;6.466;2022-07-06T06:20:04;6.63;;;3.78;;
21148;SDS011;10732;51.472;6.466;2022-07-06T06:22:32;7.85;;;3.50;;
21148;SDS011;10732;51.472;6.466;2022-07-06T06:25:19;4.90;;;3.30;;
21148;SDS011;10732;51.472;6.466;2022-07-06T06:27:55;4.85;;;3.15;;
21148;SDS011;10732;51.472;6.466;2022-07-06T06:30:21;5.25;;;3.00;;
21148;SDS011;10732;51.472;6.466;2022-07-06T06:32:47;4.78;;;2.70;;
21148;SDS011;10732;51.472;6.466;2022-07-06T06:35:13;5.55;;;2.70;;
21148;SDS011;10732;51.472;6.466;2022-07-06T06:37:38;4.90;;;2.60;;
21148;SDS011;10732;51.472;6.466;2022-07-06T06:40:04;4.20;;;2.40;;
21148;SDS011;10732;51.472;6.466;2022-07-06T06:42:31;4.88;;;2.70;;
21148;SDS011;10732;51.472;6.466;2022-07-06T06:44:57;5.18;;;2.90;;
21148;SDS011;10732;51.472;6.466;2022-07-06T06:47:22;5.68;;;2.95;;
21148;SDS011;10732;51.472;6.466;2022-07-06T06:49:48;6.00;;;2.72;;
21148;SDS011;10732;51.472;6.466;2022-07-06T06:52:14;5.22;;;2.90;;
21148;SDS011;10732;51.472;6.466;2022-07-06T06:54:39;4.53;;;2.38;;
21148;SDS011;10732;51.472;6.466;2022-07-06T06:57:05;4.45;;;2.50;;
21148;SDS011;10732;51.472;6.466;2022-07-06T06:59:31;5.30;;;2.33;;
21148;SDS011;10732;51.472;6.466;2022-07-06T07:01:56;5.07;;;2.53;;
21148;SDS011;10732;51.472;6.466;2022-07-06T07:04:22;5.22;;;2.75;;
21148;SDS011;10732;51.472;6.466;2022-07-06T07:06:48;6.82;;;2.90;;
21148;SDS011;10732;51.472;6.466;2022-07-06T07:09:13;6.18;;;2.85;;
21148;SDS011;10732;51.472;6.466;2022-07-06T07:11:39;5.78;;;2.60;;
21148;SDS011;10732;51.472;6.466;2022-07-06T07:14:05;2.85;;;2.10;;
21148;SDS011;10732;51.472;6.466;2022-07-06T07:16:30;3.53;;;2.33;;
21148;SDS011;10732;51.472;6.466;2022-07-06T07:18:56;7.20;;;2.15;;
21148;SDS011;10732;51.472;6.466;2022-07-06T07:21:22;4.07;;;2.28;;
21148;SDS011;10732;51.472;6.466;2022-07-06T07:23:47;8.23;;;2.50;;
21148;SDS011;10732;51.472;6.466;2022-07-06T07:26:15;6.10;;;2.45;;
21148;SDS011;10732;51.472;6.466;2022-07-06T07:28:41;4.38;;;2.30;;
21148;SDS011;10732;51.472;6.466;2022-07-06T07:31:06;4.03;;;2.53;;
21148;SDS011;10732;51.472;6.466;2022-07-06T07:33:32;3.40;;;2.22;;
21148;SDS011;10732;51.472;6.466;2022-07-06T07:35:58;3.50;;;2.00;;
21148;SDS011;10732;51.472;6.466;2022-07-06T07:38:24;4.40;;;2.30;;
21148;SDS011;10732;51.472;6.466;2022-07-06T07:40:50;4.50;;;2.50;;
21148;SDS011;10732;51.472;6.466;2022-07-06T07:43:17;4.80;;;2.08;;
21148;SDS011;10732;51.472;6.466;2022-07-06T07:45:43;4.38;;;2.00;;
21148;SDS011;10732;51.472;6.466;2022-07-06T07:48:08;3.70;;;1.90;;
21148;SDS011;10732;51.472;6.466;2022-07-06T07:50:34;3.75;;;1.65;;
21148;SDS011;10732;51.472;6.466;2022-07-06T07:53:00;3.53;;;1.42;;
21148;SDS011;10732;51.472;6.466;2022-07-06T07:55:26;4.53;;;1.70;;
21148;SDS011;10732;51.472;6.466;2022-07-06T07:57:52;5.63;;;1.30;;
21148;SDS011;10732;51.472;6.466;2022-07-06T08:00:17;3.45;;;1.48;;
21148;SDS011;10732;51.472;6.466;2022-07-06T08:02:43;4.85;;;1.23;;
21148;SDS011;10732;51.472;6.466;2022-07-06T08:05:08;3.85;;;1.35;;
21148;SDS011;10732;51.472;6.466;2022-07-06T08:07:38;5.15;;;1.38;;
21148;SDS011;10732;51.472;6.466;2022-07-06T08:10:04;4.05;;;1.35;;
21148;SDS011;10732;51.472;6.466;2022-07-06T08:12:30;4.65;;;1.42;;
21148;SDS011;10732;51.472;6.466;2022-07-06T08:14:55;4.65;;;1.10;;
21148;SDS011;10732;51.472;6.466;2022-07-06T08:17:21;2.85;;;1.05;;
21148;SDS011;10732;51.472;6.466;2022-07-06T08:19:46;2.63;;;1.00;;
21148;SDS011;10732;51.472;6.466;2022-07-06T08:22:12;5.15;;;1.17;;
21148;SDS011;10732;51.472;6.466;2022-07-06T08:24:37;1.15;;;0.90;;
21148;SDS011;10732;51.472;6.466;2022-07-06T08:27:03;4.25;;;1.27;;
21148;SDS011;10732;51.472;6.466;2022-07-06T08:29:29;4.07;;;1.00;;
21148;SDS011;10732;51.472;6.466;2022-07-06T08:31:55;3.05;;;1.02;;
21148;SDS011;10732;51.472;6.466;2022-07-06T08:34:21;2.13;;;0.90;;
21148;SDS011;10732;51.472;6.466;2022-07-06T08:36:47;7.30;;;1.10;;
21148;SDS011;10732;51.472;6.466;2022-07-06T08:39:13;2.67;;;0.90;;
21148;SDS011;10732;51.472;6.466;2022-07-06T08:41:40;3.78;;;0.80;;
21148;SDS011;10732;51.472;6.466;2022-07-06T08:44:07;2.10;;;0.77;;
21148;SDS011;10732;51.472;6.466;2022-07-06T08:46:34;2.90;;;0.80;;
21148;SDS011;10732;51.472;6.466;2022-07-06T08:49:02;3.45;;;0.90;;
21148;SDS011;10732;51.472;6.466;2022-07-06T08:51:28;3.83;;;0.90;;
21148;SDS011;10732;51.472;6.466;2022-07-06T08:53:54;1.75;;;0.82;;
21148;SDS011;10732;51.472;6.466;2022-07-06T08:56:22;2.05;;;0.90;;
21148;SDS011;10732;51.472;6.466;2022-07-06T08:58:47;3.63;;;0.93;;
21148;SDS011;10732;51.472;6.466;2022-07-06T09:01:13;1.85;;;0.82;;
21148;SDS011;10732;51.472;6.466;2022-07-06T09:03:40;5.43;;;1.45;;
21148;SDS011;10732;51.472;6.466;2022-07-06T09:06:06;5.25;;;1.20;;
21148;SDS011;10732;51.472;6.466;2022-07-06T09:08:32;3.05;;;0.95;;
21148;SDS011;10732;51.472;6.466;2022-07-06T09:10:58;2.80;;;0.82;;
21148;SDS011;10732;51.472;6.466;2022-07-06T09:13:24;2.53;;;1.00;;
21148;SDS011;10732;51.472;6.466;2022-07-06T09:15:49;2.88;;;0.70;;
21148;SDS011;10732;51.472;6.466;2022-07-06T09:18:15;3.42;;;0.80;;
21148;SDS011;10732;51.472;6.466;2022-07-06T09:20:41;1.85;;;0.77;;
21148;SDS011;10732;51.472;6.466;2022-07-06T09:23:06;2.13;;;1.02;;
21148;SDS011;10732;51.472;6.466;2022-07-06T09:25:32;4.88;;;1.05;;
21148;SDS011;10732;51.472;6.466;2022-07-06T09:27:59;2.20;;;0.82;;
21148;SDS011;10732;51.472;6.466;2022-07-06T09:30:26;3.30;;;0.70;;
21148;SDS011;10732;51.472;6.466;2022-07-06T09:32:56;2.58;;;1.00;;
21148;SDS011;10732;51.472;6.466;2022-07-06T09:35:29;2.03;;;0.80;;
21148;SDS011;10732;51.472;6.466;2022-07-06T09:38:13;3.72;;;1.10;;
21148;SDS011;10732;51.472;6.466;2022-07-06T09:40:40;1.73;;;0.90;;
21148;SDS011;10732;51.472;6.466;2022-07-06T09:43:20;2.72;;;1.38;;
21148;SDS011;10732;51.472;6.466;2022-07-06T09:45:51;1.45;;;1.00;;
21148;SDS011;10732;51.472;6.466;2022-07-06T09:48:19;4.72;;;1.00;;
21148;SDS011;10732;51.472;6.466;2022-07-06T09:51:07;2.67;;;0.90;;
21148;SDS011;10732;51.472;6.466;2022-07-06T09:53:34;6.50;;;1.30;;
21148;SDS011;10732;51.472;6.466;2022-07-06T09:56:00;3.17;;;1.15;;
21148;SDS011;10732;51.472;6.466;2022-07-06T09:58:30;3.67;;;1.27;;
21148;SDS011;10732;51.472;6.466;2022-07-06T10:00:55;4.50;;;1.20;;
21148;SDS011;10732;51.472;6.466;2022-07-06T10:03:21;4.78;;;1.30;;
21148;SDS011;10732;51.472;6.466;2022-07-06T10:05:47;3.17;;;1.00;;
21148;SDS011;10732;51.472;6.466;2022-07-06T10:08:15;1.70;;;0.90;;
21148;SDS011;10732;51.472;6.466;2022-07-06T10:10:42;3.08;;;1.10;;
21148;SDS011;10732;51.472;6.466;2022-07-06T10:13:08;2.17;;;0.90;;
21148;SDS011;10732;51.472;6.466;2022-07-06T10:15:35;4.78;;;1.30;;
21148;SDS011;10732;51.472;6.466;2022-07-06T10:18:05;2.40;;;0.90;;
21148;SDS011;10732;51.472;6.466;2022-07-06T10:20:33;3.53;;;1.20;;
21148;SDS011;10732;51.472;6.466;2022-07-06T10:23:02;3.08;;;1.13;;
21148;SDS011;10732;51.472;6.466;2022-07-06T10:25:28;2.90;;;1.05;;
21148;SDS011;10732;51.472;6.466;2022-07-06T10:27:56;2.80;;;0.93;;
21148;SDS011;10732;51.472;6.466;2022-07-06T10:30:22;1.88;;;1.00;;
21148;SDS011;10732;51.472;6.466;2022-07-06T10:32:49;3.28;;;1.02;;
21148;SDS011;10732;51.472;6.466;2022-07-06T10:35:16;2.65;;;1.00;;
21148;SDS011;10732;51.472;6.466;2022-07-06T10:37:44;3.95;;;0.90;;
21148;SDS011;10732;51.472;6.466;2022-07-06T10:40:13;2.00;;;0.88;;
21148;SDS011;10732;51.472;6.466;2022-07-06T10:43:01;2.40;;;0.80;;
21148;SDS011;10732;51.472;6.466;2022-07-06T10:48:26;1.77;;;0.80;;
21148;SDS011;10732;51.472;6.466;2022-07-06T10:53:26;2.22;;;0.88;;
21148;SDS011;10732;51.472;6.466;2022-07-06T10:55:53;3.28;;;0.90;;
21148;SDS011;10732;51.472;6.466;2022-07-06T11:01:01;6.40;;;1.00;;
21148;SDS011;10732;51.472;6.466;2022-07-06T11:03:38;1.88;;;0.98;;
21148;SDS011;10732;51.472;6.466;2022-07-06T11:06:06;8.90;;;1.42;;
21148;SDS011;10732;51.472;6.466;2022-07-06T11:08:44;2.17;;;0.85;;
21148;SDS011;10732;51.472;6.466;2022-07-06T11:14:06;2.78;;;0.73;;
21148;SDS011;10732;51.472;6.466;2022-07-06T11:19:14;4.13;;;0.80;;
21148;SDS011;10732;51.472;6.466;2022-07-06T11:21:45;2.38;;;1.00;;
21148;SDS011;10732;51.472;6.466;2022-07-06T11:24:25;2.78;;;0.70;;
21148;SDS011;10732;51.472;6.466;2022-07-06T11:26:55;2.45;;;0.80;;
21148;SDS011;10732;51.472;6.466;2022-07-06T11:29:22;1.55;;;0.70;;
21148;SDS011;10732;51.472;6.466;2022-07-06T11:31:51;2.85;;;1.00;;
21148;SDS011;10732;51.472;6.466;2022-07-06T11:34:25;1.98;;;0.90;;
21148;SDS011;10732;51.472;6.466;2022-07-06T11:36:59;1.90;;;0.90;;
21148;SDS011;10732;51.472;6.466;2022-07-06T11:39:36;6.57;;;0.90;;
21148;SDS011;10732;51.472;6.466;2022-07-06T11:42:07;2.47;;;0.85;;
21148;SDS011;10732;51.472;6.466;2022-07-06T11:44:40;3.15;;;0.98;;
21148;SDS011;10732;51.472;6.466;2022-07-06T11:47:07;3.53;;;1.00;;
21148;SDS011;10732;51.472;6.466;2022-07-06T11:49:34;1.58;;;0.80;;
21148;SDS011;10732;51.472;6.466;2022-07-06T11:52:05;3.50;;;1.10;;
21148;SDS011;10732;51.472;6.466;2022-07-06T11:54:35;2.53;;;1.40;;
21148;SDS011;10732;51.472;6.466;2022-07-06T11:57:01;2.63;;;1.40;;
21148;SDS011;10732;51.472;6.466;2022-07-06T11:59:32;3.95;;;1.20;;
21148;SDS011;10732;51.472;6.466;2022-07-06T12:04:28;3.25;;;1.00;;
21148;SDS011;10732;51.472;6.466;2022-07-06T12:06:54;6.18;;;1.10;;
21148;SDS011;10732;51.472;6.466;2022-07-06T12:09:20;4.07;;;0.90;;
21148;SDS011;10732;51.472;6.466;2022-07-06T12:11:46;3.70;;;1.30;;
21148;SDS011;10732;51.472;6.466;2022-07-06T12:14:13;3.03;;;1.30;;
21148;SDS011;10732;51.472;6.466;2022-07-06T12:16:41;2.78;;;1.00;;
21148;SDS011;10732;51.472;6.466;2022-07-06T12:19:07;4.47;;;1.00;;
21148;SDS011;10732;51.472;6.466;2022-07-06T12:21:36;2.60;;;1.10;;
21148;SDS011;10732;51.472;6.466;2022-07-06T12:24:06;5.13;;;1.60;;
21148;SDS011;10732;51.472;6.466;2022-07-06T12:26:38;5.82;;;2.10;;
21148;SDS011;10732;51.472;6.466;2022-07-06T12:31:36;6.32;;;1.70;;
21148;SDS011;10732;51.472;6.466;2022-07-06T12:34:04;3.35;;;1.30;;
21148;SDS011;10732;51.472;6.466;2022-07-06T12:36:31;6.63;;;1.80;;
21148;SDS011;10732;51.472;6.466;2022-07-06T12:39:09;3.58;;;1.23;;
21148;SDS011;10732;51.472;6.466;2022-07-06T12:41:36;26.42;;;3.67;;
21148;SDS011;10732;51.472;6.466;2022-07-06T12:46:30;10.02;;;1.67;;
21148;SDS011;10732;51.472;6.466;2022-07-06T12:48:57;28.77;;;2.63;;
21148;SDS011;10732;51.472;6.466;2022-07-06T12:51:24;13.88;;;1.98;;
21148;SDS011;10732;51.472;6.466;2022-07-06T12:53:50;11.18;;;1.38;;
21148;SDS011;10732;51.472;6.466;2022-07-06T12:56:16;11.05;;;1.55;;
21148;SDS011;10732;51.472;6.466;2022-07-06T12:59:00;5.80;;;1.52;;
21148;SDS011;10732;51.472;6.466;2022-07-06T13:01:26;5.00;;;1.42;;
21148;SDS011;10732;51.472;6.466;2022-07-06T13:03:55;8.13;;;1.42;;
21148;SDS011;10732;51.472;6.466;2022-07-06T13:06:34;4.97;;;1.08;;
21148;SDS011;10732;51.472;6.466;2022-07-06T13:09:02;14.90;;;2.25;;
21148;SDS011;10732;51.472;6.466;2022-07-06T13:11:28;32.53;;;4.10;;
21148;SDS011;10732;51.472;6.466;2022-07-06T13:13:53;12.07;;;1.83;;
21148;SDS011;10732;51.472;6.466;2022-07-06T13:16:19;5.75;;;1.08;;
21148;SDS011;10732;51.472;6.466;2022-07-06T13:18:46;2.55;;;0.90;;
21148;SDS011;10732;51.472;6.466;2022-07-06T13:21:12;8.15;;;1.50;;
21148;SDS011;10732;51.472;6.466;2022-07-06T13:23:38;10.43;;;1.50;;
21148;SDS011;10732;51.472;6.466;2022-07-06T13:26:04;1.70;;;0.95;;
21148;SDS011;10732;51.472;6.466;2022-07-06T13:28:29;5.72;;;1.00;;
21148;SDS011;10732;51.472;6.466;2022-07-06T13:30:55;4.82;;;0.93;;
21148;SDS011;10732;51.472;6.466;2022-07-06T13:33:20;5.15;;;1.13;;
21148;SDS011;10732;51.472;6.466;2022-07-06T13:35:46;1.95;;;1.00;;
21148;SDS011;10732;51.472;6.466;2022-07-06T13:38:12;3.15;;;0.82;;
21148;SDS011;10732;51.472;6.466;2022-07-06T13:40:37;3.63;;;1.00;;
21148;SDS011;10732;51.472;6.466;2022-07-06T13:43:03;2.95;;;0.75;;
21148;SDS011;10732;51.472;6.466;2022-07-06T13:45:28;3.50;;;1.00;;
21148;SDS011;10732;51.472;6.466;2022-07-06T13:47:54;1.70;;;0.88;;
21148;SDS011;10732;51.472;6.466;2022-07-06T13:50:19;3.83;;;0.70;;
21148;SDS011;10732;51.472;6.466;2022-07-06T13:52:45;2.83;;;0.80;;
21148;SDS011;10732;51.472;6.466;2022-07-06T13:55:10;2.92;;;1.00;;
21148;SDS011;10732;51.472;6.466;2022-07-06T13:57:36;1.60;;;0.70;;
21148;SDS011;10732;51.472;6.466;2022-07-06T14:00:03;2.47;;;1.02;;
21148;SDS011;10732;51.472;6.466;2022-07-06T14:02:29;2.00;;;0.80;;
21148;SDS011;10732;51.472;6.466;2022-07-06T14:04:55;4.45;;;1.13;;
21148;SDS011;10732;51.472;6.466;2022-07-06T14:07:20;2.38;;;0.80;;
21148;SDS011;10732;51.472;6.466;2022-07-06T14:09:46;4.35;;;1.00;;
21148;SDS011;10732;51.472;6.466;2022-07-06T14:12:16;3.67;;;0.90;;
21148;SDS011;10732;51.472;6.466;2022-07-06T14:14:42;1.63;;;0.88;;
21148;SDS011;10732;51.472;6.466;2022-07-06T14:17:07;3.78;;;0.82;;
21148;SDS011;10732;51.472;6.466;2022-07-06T14:19:33;8.10;;;1.30;;
21148;SDS011;10732;51.472;6.466;2022-07-06T14:21:59;13.38;;;2.00;;
21148;SDS011;10732;51.472;6.466;2022-07-06T14:24:24;1.40;;;0.80;;
21148;SDS011;10732;51.472;6.466;2022-07-06T14:26:50;9.75;;;1.73;;
21148;SDS011;10732;51.472;6.466;2022-07-06T14:29:16;17.52;;;1.73;;
21148;SDS011;10732;51.472;6.466;2022-07-06T14:31:41;12.90;;;1.70;;
21148;SDS011;10732;51.472;6.466;2022-07-06T14:34:07;8.75;;;1.30;;
21148;SDS011;10732;51.472;6.466;2022-07-06T14:36:32;6.30;;;1.40;;
21148;SDS011;10732;51.472;6.466;2022-07-06T14:38:59;13.70;;;1.55;;
21148;SDS011;10732;51.472;6.466;2022-07-06T14:41:25;10.82;;;1.45;;
21148;SDS011;10732;51.472;6.466;2022-07-06T14:43:50;19.58;;;2.25;;
21148;SDS011;10732;51.472;6.466;2022-07-06T14:46:16;28.05;;;2.70;;
21148;SDS011;10732;51.472;6.466;2022-07-06T14:48:41;13.70;;;1.70;;
21148;SDS011;10732;51.472;6.466;2022-07-06T14:51:07;6.93;;;1.17;;
21148;SDS011;10732;51.472;6.466;2022-07-06T14:53:33;3.10;;;0.80;;
21148;SDS011;10732;51.472;6.466;2022-07-06T14:55:58;1.27;;;0.90;;
21148;SDS011;10732;51.472;6.466;2022-07-06T14:58:24;2.28;;;0.90;;
21148;SDS011;10732;51.472;6.466;2022-07-06T15:00:50;8.07;;;1.58;;
21148;SDS011;10732;51.472;6.466;2022-07-06T15:03:16;19.58;;;2.45;;